createdAt,value
2022-08-31T00:02:01.731Z,51.82
2022-08-31T00:04:32.658Z,52.02
2022-08-31T00:07:01.111Z,51.91
2022-08-31T00:09:31.247Z,52.24
2022-08-31T00:11:59.491Z,52.72
2022-08-31T00:14:28.798Z,52.65
2022-08-31T00:16:57.740Z,52.63
2022-08-31T00:19:26.317Z,52.54
2022-08-31T00:21:55.701Z,52.71
2022-08-31T00:24:26.172Z,52.80
2022-08-31T00:26:54.480Z,52.67
2022-08-31T00:29:23.870Z,52.89
2022-08-31T00:31:52.149Z,53.09
2022-08-31T00:34:22.537Z,52.89
2022-08-31T00:36:50.798Z,53.14
2022-08-31T00:39:20.387Z,53.24
2022-08-31T00:41:48.441Z,53.25
2022-08-31T00:44:16.803Z,53.64
2022-08-31T00:46:45.808Z,53.93
2022-08-31T00:49:18.893Z,53.69
2022-08-31T00:51:51.539Z,53.84
2022-08-31T00:54:25.989Z,54.14
2022-08-31T00:56:55.014Z,53.99
2022-08-31T00:59:24.475Z,53.84
2022-08-31T01:01:52.933Z,54.08
2022-08-31T01:04:20.882Z,53.78
2022-08-31T01:06:50.364Z,53.28
2022-08-31T01:09:23.441Z,53.55
2022-08-31T01:11:51.593Z,53.51
2022-08-31T01:14:20.416Z,53.56
2022-08-31T01:16:52.234Z,53.16
2022-08-31T01:19:31.000Z,53.25
2022-08-31T01:22:08.086Z,53.61
2022-08-31T01:24:40.773Z,53.38
2022-08-31T01:27:09.076Z,53.48
2022-08-31T01:29:37.454Z,53.00
2022-08-31T01:32:06.582Z,52.76
2022-08-31T01:34:35.728Z,52.97
2022-08-31T01:37:04.540Z,53.82
2022-08-31T01:39:32.950Z,53.66
2022-08-31T01:42:02.228Z,53.79
2022-08-31T01:44:30.432Z,53.68
2022-08-31T01:46:58.400Z,53.74
2022-08-31T01:49:28.785Z,54.11
2022-08-31T01:51:57.566Z,53.97
2022-08-31T01:54:27.815Z,53.79
2022-08-31T01:56:56.416Z,52.88
2022-08-31T01:59:34.465Z,52.12
2022-08-31T02:02:21.926Z,53.06
2022-08-31T02:04:50.285Z,54.46
2022-08-31T02:07:21.052Z,55.11
2022-08-31T02:09:49.489Z,54.70
2022-08-31T02:12:21.047Z,54.66
2022-08-31T02:14:53.686Z,54.38
2022-08-31T02:17:22.005Z,54.90
2022-08-31T02:19:50.767Z,55.19
2022-08-31T02:22:19.568Z,55.46
2022-08-31T02:24:47.541Z,55.01
2022-08-31T02:27:15.704Z,55.34
2022-08-31T02:29:43.985Z,54.80
2022-08-31T02:32:15.680Z,55.68
2022-08-31T02:34:47.711Z,55.97
2022-08-31T02:37:16.420Z,55.59
2022-08-31T02:39:45.871Z,55.42
2022-08-31T02:42:18.431Z,56.16
2022-08-31T02:44:46.873Z,55.81
2022-08-31T02:47:16.154Z,55.53
2022-08-31T02:49:53.281Z,55.16
2022-08-31T02:52:21.594Z,55.29
2022-08-31T02:54:50.375Z,55.10
2022-08-31T02:57:18.725Z,54.69
2022-08-31T02:59:46.765Z,55.10
2022-08-31T03:02:18.885Z,55.80
2022-08-31T03:04:47.361Z,56.16
2022-08-31T03:07:18.073Z,56.86
2022-08-31T03:09:47.084Z,56.50
2022-08-31T03:12:16.706Z,56.53
2022-08-31T03:14:45.587Z,56.45
2022-08-31T03:17:13.720Z,57.01
2022-08-31T03:19:43.391Z,56.90
2022-08-31T03:22:14.845Z,57.35
2022-08-31T03:24:44.251Z,57.59
2022-08-31T03:27:12.405Z,57.89
2022-08-31T03:29:42.518Z,58.37
2022-08-31T03:32:17.089Z,58.02
2022-08-31T03:34:49.782Z,58.54
2022-08-31T03:37:18.550Z,58.46
2022-08-31T03:39:47.000Z,58.65
2022-08-31T03:42:15.301Z,58.57
2022-08-31T03:44:43.811Z,59.27
2022-08-31T03:47:21.300Z,58.75
2022-08-31T03:49:53.720Z,58.76
2022-08-31T03:52:28.568Z,58.70
2022-08-31T03:55:02.230Z,59.11
2022-08-31T03:57:32.840Z,58.82
2022-08-31T04:00:01.127Z,59.02
2022-08-31T04:02:41.426Z,59.00
2022-08-31T04:05:43.683Z,58.43
2022-08-31T04:08:30.496Z,58.52
2022-08-31T04:11:44.408Z,58.78
2022-08-31T04:14:32.299Z,59.03
2022-08-31T04:17:19.224Z,58.81
2022-08-31T04:19:52.589Z,59.72
2022-08-31T04:22:43.609Z,59.06
2022-08-31T04:25:23.633Z,59.23
2022-08-31T04:27:54.418Z,58.91
2022-08-31T04:30:22.754Z,58.93
2022-08-31T04:32:54.123Z,59.00
2022-08-31T04:35:23.478Z,59.31
2022-08-31T04:37:53.136Z,59.90
2022-08-31T04:40:26.188Z,59.89
2022-08-31T04:42:59.878Z,61.24
2022-08-31T04:45:28.354Z,61.41
2022-08-31T04:47:56.850Z,61.97
2022-08-31T04:50:26.314Z,62.29
2022-08-31T04:53:11.696Z,62.61
2022-08-31T04:55:41.553Z,62.76
2022-08-31T04:58:13.038Z,62.03
2022-08-31T05:00:43.660Z,61.61
2022-08-31T05:03:31.730Z,61.62
2022-08-31T05:06:00.113Z,61.92
2022-08-31T05:08:30.434Z,62.03
2022-08-31T05:11:00.747Z,61.55
2022-08-31T05:13:29.052Z,62.28
2022-08-31T05:15:58.207Z,61.30
2022-08-31T05:18:28.213Z,61.21
2022-08-31T05:20:59.435Z,61.90
2022-08-31T05:23:29.261Z,62.36
2022-08-31T05:25:57.563Z,62.73
2022-08-31T05:28:26.588Z,62.82
2022-08-31T05:30:54.763Z,62.31
2022-08-31T05:33:32.095Z,62.17
2022-08-31T05:36:02.131Z,61.61
2022-08-31T05:38:31.615Z,61.32
2022-08-31T05:41:00.493Z,62.57
2022-08-31T05:43:29.399Z,62.29
2022-08-31T05:45:58.324Z,61.50
2022-08-31T05:48:29.800Z,61.41
2022-08-31T05:51:02.417Z,61.38
2022-08-31T05:53:32.112Z,62.76
2022-08-31T05:56:02.867Z,62.80
2022-08-31T05:58:32.050Z,64.16
2022-08-31T06:01:01.451Z,65.97
2022-08-31T06:04:02.075Z,67.43
2022-08-31T06:06:31.068Z,69.21
2022-08-31T06:09:00.794Z,69.19
2022-08-31T06:11:31.842Z,71.40
2022-08-31T06:14:01.877Z,74.85
2022-08-31T06:16:32.299Z,77.99
2022-08-31T06:19:03.546Z,82.07
2022-08-31T06:21:35.579Z,87.86
2022-08-31T06:24:07.440Z,94.90
2022-08-31T06:26:37.735Z,99.22
2022-08-31T06:29:12.995Z,100.00
2022-08-31T06:31:47.227Z,100.00
2022-08-31T06:34:21.485Z,100.00
2022-08-31T06:36:49.335Z,100.00
2022-08-31T06:39:40.363Z,100.00
2022-08-31T06:42:34.092Z,100.00
2022-08-31T06:45:06.888Z,100.00
2022-08-31T06:48:09.864Z,100.00
2022-08-31T06:50:41.472Z,100.00
2022-08-31T06:53:09.888Z,100.00
2022-08-31T06:56:07.363Z,100.00
2022-08-31T06:59:14.821Z,100.00
2022-08-31T07:02:00.267Z,100.00
2022-08-31T07:04:38.590Z,100.00
2022-08-31T07:07:11.243Z,100.00
2022-08-31T07:09:41.233Z,100.00
2022-08-31T07:12:11.533Z,100.00
2022-08-31T07:14:40.027Z,100.00
2022-08-31T07:17:09.289Z,100.00
2022-08-31T07:19:37.817Z,100.00
2022-08-31T07:22:15.283Z,97.40
2022-08-31T07:24:46.574Z,97.71
2022-08-31T07:27:16.452Z,97.68
2022-08-31T07:29:55.604Z,95.79
2022-08-31T07:32:25.141Z,94.54
2022-08-31T07:34:59.761Z,96.71
2022-08-31T07:37:49.102Z,97.10
2022-08-31T07:40:35.581Z,96.55
2022-08-31T07:43:06.154Z,97.34
2022-08-31T07:45:39.328Z,97.12
2022-08-31T07:48:08.843Z,98.43
2022-08-31T07:50:57.584Z,99.38
2022-08-31T07:53:47.515Z,99.33
2022-08-31T07:56:46.688Z,100.00
2022-08-31T07:59:18.699Z,100.00
2022-08-31T08:01:47.776Z,100.00
2022-08-31T08:04:25.458Z,100.00
2022-08-31T08:07:16.812Z,100.00
2022-08-31T08:09:50.816Z,100.00
2022-08-31T08:12:42.327Z,100.00
2022-08-31T08:15:18.444Z,99.42
2022-08-31T08:18:03.483Z,96.34
2022-08-31T08:20:37.621Z,92.31
2022-08-31T08:23:13.907Z,94.78
2022-08-31T08:26:02.304Z,94.34
2022-08-31T08:28:50.474Z,94.00
2022-08-31T08:31:23.237Z,96.05
2022-08-31T08:33:53.206Z,96.15
2022-08-31T08:36:21.592Z,95.86
2022-08-31T08:38:53.979Z,94.41
2022-08-31T08:41:28.172Z,95.97
2022-08-31T08:43:58.610Z,95.15
2022-08-31T08:46:40.393Z,96.59
2022-08-31T08:49:19.353Z,98.35
2022-08-31T08:51:58.670Z,99.76
2022-08-31T08:54:32.890Z,100.00
2022-08-31T08:57:16.636Z,100.00
2022-08-31T08:59:49.118Z,100.00
2022-08-31T09:02:25.083Z,98.99
2022-08-31T09:05:15.526Z,98.37
2022-08-31T09:08:29.209Z,98.70
2022-08-31T09:11:12.431Z,100.00
2022-08-31T09:13:53.467Z,100.00
2022-08-31T09:16:40.862Z,100.00
2022-08-31T09:19:15.554Z,94.45
2022-08-31T09:21:48.289Z,91.48
2022-08-31T09:24:19.437Z,85.88
2022-08-31T09:27:18.200Z,84.61
2022-08-31T09:29:48.314Z,80.10
2022-08-31T09:32:26.222Z,78.38
2022-08-31T09:35:00.466Z,75.78
2022-08-31T09:37:34.229Z,74.83
2022-08-31T09:40:16.813Z,76.84
2022-08-31T09:43:04.278Z,74.59
2022-08-31T09:45:41.941Z,74.66
2022-08-31T09:48:11.215Z,71.81
2022-08-31T09:50:45.370Z,69.01
2022-08-31T09:53:37.889Z,69.79
2022-08-31T09:56:15.689Z,69.16
2022-08-31T09:58:46.946Z,69.02
2022-08-31T10:01:21.380Z,67.48
2022-08-31T10:03:50.818Z,67.33
2022-08-31T10:06:45.677Z,67.94
2022-08-31T10:09:33.490Z,67.92
2022-08-31T10:12:05.683Z,66.45
2022-08-31T10:14:41.403Z,66.25
2022-08-31T10:17:15.347Z,69.43
2022-08-31T10:19:53.440Z,71.40
2022-08-31T10:22:32.592Z,70.16
2022-08-31T11:17:27.403Z,53.37
2022-08-31T11:20:06.396Z,52.55
2022-08-31T11:22:52.413Z,49.73
2022-08-31T11:25:47.424Z,46.89
2022-08-31T11:28:32.287Z,43.88
2022-08-31T11:31:02.667Z,41.38
2022-08-31T11:33:32.375Z,40.05
2022-08-31T11:36:07.270Z,38.89
2022-08-31T11:38:53.542Z,37.72
2022-08-31T11:41:39.330Z,32.45
2022-08-31T11:44:09.591Z,29.41
2022-08-31T11:46:50.719Z,29.50
2022-08-31T11:49:43.871Z,33.83
2022-08-31T11:52:35.222Z,34.52
2022-08-31T11:55:21.182Z,32.80
2022-08-31T11:58:31.709Z,31.96
2022-08-31T12:01:03.720Z,28.95
2022-08-31T12:03:40.708Z,29.78
2022-08-31T12:06:13.664Z,32.56
2022-08-31T12:08:53.076Z,35.49
2022-08-31T12:11:37.234Z,38.97
2022-08-31T12:14:15.963Z,33.36
2022-08-31T12:16:57.310Z,35.48
2022-08-31T12:20:01.754Z,30.79
2022-08-31T12:23:29.994Z,26.07
2022-08-31T12:26:11.140Z,23.26
2022-08-31T12:29:01.957Z,23.84
2022-08-31T12:31:30.516Z,25.30
2022-08-31T12:34:04.883Z,29.53
2022-08-31T12:36:37.041Z,33.80
2022-08-31T12:39:12.821Z,32.90
2022-08-31T12:41:51.972Z,37.24
2022-08-31T12:44:22.760Z,33.65
2022-08-31T12:47:02.652Z,30.87
2022-08-31T12:49:54.445Z,37.31
2022-08-31T12:52:40.385Z,39.71
2022-08-31T12:55:23.421Z,35.31
2022-08-31T12:58:07.160Z,25.15
2022-08-31T13:00:38.780Z,22.59
2022-08-31T13:03:22.090Z,21.76
2022-08-31T13:06:05.801Z,19.91
2022-08-31T13:08:39.257Z,19.82
2022-08-31T13:11:25.813Z,18.56
2022-08-31T13:14:14.068Z,19.90
2022-08-31T13:16:45.303Z,31.84
2022-08-31T13:19:25.903Z,36.21
2022-08-31T13:21:57.864Z,39.26
2022-08-31T13:24:30.905Z,40.30
2022-08-31T13:27:08.589Z,41.00
2022-08-31T13:29:44.144Z,40.80
2022-08-31T13:32:16.040Z,40.25
2022-08-31T13:34:43.951Z,41.69
2022-08-31T13:37:19.002Z,42.49
2022-08-31T13:39:50.479Z,43.46
2022-08-31T13:42:35.521Z,42.83
2022-08-31T13:45:09.372Z,42.71
2022-08-31T13:47:55.261Z,44.18
2022-08-31T13:50:32.934Z,44.72
2022-08-31T13:53:26.248Z,43.13
2022-08-31T13:55:53.031Z,42.74
2022-08-31T13:58:29.081Z,41.91
2022-08-31T14:01:22.994Z,40.60
2022-08-31T14:03:57.424Z,39.40
2022-08-31T14:06:32.953Z,40.02
2022-08-31T14:09:05.870Z,42.46
2022-08-31T14:11:35.624Z,40.28
2022-08-31T14:14:08.753Z,38.77
2022-08-31T14:16:43.773Z,38.43
2022-08-31T14:19:31.081Z,37.12
2022-08-31T14:22:16.281Z,35.73
2022-08-31T14:24:45.882Z,34.86
2022-08-31T14:27:15.329Z,36.90
2022-08-31T14:29:44.812Z,36.93
2022-08-31T14:32:18.594Z,37.12
2022-08-31T14:34:49.072Z,38.31
2022-08-31T14:37:22.556Z,40.01
2022-08-31T14:39:53.764Z,38.64
2022-08-31T14:42:25.682Z,37.58
2022-08-31T14:45:01.054Z,36.97
2022-08-31T14:47:31.650Z,35.66
2022-08-31T14:50:05.434Z,36.79
2022-08-31T14:52:34.686Z,37.42
2022-08-31T14:55:03.128Z,38.45
2022-08-31T14:57:34.434Z,38.49
2022-08-31T15:00:07.077Z,37.53
2022-08-31T15:02:36.182Z,37.21
2022-08-31T15:05:08.187Z,37.34
2022-08-31T15:07:39.374Z,34.92
2022-08-31T15:10:11.875Z,36.40
2022-08-31T15:12:39.921Z,36.40
2022-08-31T15:15:10.984Z,36.03
2022-08-31T15:17:40.246Z,35.56
2022-08-31T15:20:11.348Z,35.68
2022-08-31T15:22:40.748Z,35.54
2022-08-31T15:25:11.934Z,36.52
2022-08-31T15:27:44.469Z,36.05
2022-08-31T15:30:16.266Z,35.30
2022-08-31T15:32:45.354Z,34.95
2022-08-31T15:35:18.825Z,34.90
2022-08-31T15:37:56.536Z,33.78
2022-08-31T15:40:27.955Z,34.20
2022-08-31T15:42:59.750Z,34.89
2022-08-31T15:45:31.119Z,34.82
2022-08-31T15:48:17.264Z,35.56
2022-08-31T15:50:52.665Z,33.78
2022-08-31T15:53:25.501Z,33.79
2022-08-31T15:55:53.443Z,35.79
2022-08-31T15:58:24.819Z,36.72
2022-08-31T16:00:54.470Z,35.67
2022-08-31T16:03:22.719Z,35.23
2022-08-31T16:05:51.244Z,35.55
2022-08-31T16:08:19.446Z,34.94
2022-08-31T16:10:48.431Z,34.02
2022-08-31T16:13:17.026Z,36.53
2022-08-31T16:15:51.284Z,37.10
2022-08-31T16:18:22.216Z,37.49
2022-08-31T16:20:51.807Z,35.45
2022-08-31T16:23:21.222Z,36.97
2022-08-31T16:25:49.560Z,37.26
2022-08-31T16:28:19.900Z,38.09
2022-08-31T16:30:48.606Z,35.88
2022-08-31T16:33:20.618Z,34.55
2022-08-31T16:35:48.743Z,34.09
2022-08-31T16:38:16.959Z,36.23
2022-08-31T16:40:45.485Z,38.56
2022-08-31T16:43:14.267Z,40.54
2022-08-31T16:45:42.917Z,40.13
2022-08-31T16:48:29.840Z,39.98
2022-08-31T16:51:02.781Z,39.95
2022-08-31T16:53:31.967Z,38.95
2022-08-31T16:56:00.216Z,38.11
2022-08-31T16:58:50.520Z,37.93
2022-08-31T17:01:20.934Z,38.07
2022-08-31T17:03:52.616Z,37.05
2022-08-31T17:06:22.306Z,37.68
2022-08-31T17:08:54.569Z,37.93
2022-08-31T17:11:25.347Z,39.60
2022-08-31T17:13:58.489Z,41.28
2022-08-31T17:16:29.454Z,41.52
2022-08-31T17:19:00.239Z,42.99
2022-08-31T17:21:32.630Z,43.38
2022-08-31T17:24:03.610Z,43.00
2022-08-31T17:26:35.122Z,42.36
2022-08-31T17:29:09.659Z,42.33
2022-08-31T17:31:42.426Z,42.41
2022-08-31T17:34:12.631Z,42.48
2022-08-31T17:36:43.471Z,42.89
2022-08-31T17:39:12.224Z,43.03
2022-08-31T17:41:42.759Z,43.44
2022-08-31T17:44:18.552Z,43.72
2022-08-31T17:46:49.739Z,44.41
2022-08-31T17:49:20.298Z,44.22
2022-08-31T17:51:50.988Z,43.82
2022-08-31T17:54:22.076Z,43.71
2022-08-31T17:56:53.537Z,44.27
2022-08-31T17:59:25.286Z,44.44
2022-08-31T18:01:56.019Z,45.01
2022-08-31T18:04:26.409Z,46.11
2022-08-31T18:06:57.293Z,47.11
2022-08-31T18:09:27.768Z,47.55
2022-08-31T18:11:56.667Z,48.04
2022-08-31T18:14:28.087Z,48.83
2022-08-31T18:16:59.977Z,49.51
2022-08-31T18:19:32.777Z,49.95
2022-08-31T18:22:03.991Z,50.48
2022-08-31T18:24:35.597Z,50.84
2022-08-31T18:27:07.224Z,51.54
2022-08-31T18:29:36.107Z,51.63
2022-08-31T18:32:08.859Z,51.68
2022-08-31T18:34:40.292Z,52.45
2022-08-31T18:37:11.048Z,53.14
2022-08-31T18:39:54.096Z,53.50
2022-08-31T18:42:42.777Z,53.66
2022-08-31T18:45:19.895Z,53.83
2022-08-31T18:50:44.938Z,54.85
2022-08-31T18:53:29.574Z,55.19
2022-08-31T18:56:00.643Z,55.63
2022-08-31T18:58:30.402Z,56.23
2022-08-31T19:01:00.320Z,56.79
2022-08-31T19:03:29.663Z,57.21
2022-08-31T19:06:01.421Z,57.05
2022-08-31T19:08:32.043Z,57.71
2022-08-31T19:11:01.208Z,58.44
2022-08-31T19:13:31.399Z,58.71
2022-08-31T19:16:03.815Z,58.97
2022-08-31T19:18:36.604Z,59.14
2022-08-31T19:21:15.421Z,59.39
2022-08-31T19:23:45.892Z,59.54
2022-08-31T19:26:23.580Z,59.76
2022-08-31T19:28:52.017Z,59.90
2022-08-31T19:31:23.165Z,60.20
2022-08-31T19:33:56.465Z,60.31
2022-08-31T19:36:24.728Z,60.54
2022-08-31T19:38:56.405Z,60.33
2022-08-31T19:41:28.107Z,60.66
2022-08-31T19:44:07.626Z,60.56
2022-08-31T19:46:39.303Z,60.15
2022-08-31T19:49:11.171Z,60.65
2022-08-31T19:51:42.183Z,60.98
2022-08-31T19:54:13.149Z,60.96
2022-08-31T19:56:42.986Z,61.20
2022-08-31T19:59:13.380Z,61.19
2022-08-31T20:01:43.974Z,61.62
2022-08-31T20:04:16.640Z,61.48
2022-08-31T20:06:46.242Z,61.80
2022-08-31T20:09:16.397Z,61.54
2022-08-31T20:11:47.736Z,62.12
2022-08-31T20:14:16.806Z,62.40
2022-08-31T20:16:46.643Z,62.38
2022-08-31T20:19:21.091Z,62.96
2022-08-31T20:21:53.977Z,63.31
2022-08-31T20:24:26.808Z,63.58
2022-08-31T20:27:09.012Z,63.97
2022-08-31T20:29:38.873Z,64.37
2022-08-31T20:32:08.054Z,64.60
2022-08-31T20:34:38.381Z,64.54
2022-08-31T20:37:07.805Z,64.29
2022-08-31T20:39:37.324Z,64.50
2022-08-31T20:42:07.204Z,64.67
2022-08-31T20:44:37.751Z,64.40
2022-08-31T20:47:25.573Z,64.20
2022-08-31T20:49:58.652Z,63.30
2022-08-31T20:52:29.384Z,63.20
2022-08-31T20:55:02.471Z,63.15
2022-08-31T20:57:32.823Z,63.62
2022-08-31T21:00:05.081Z,63.74
2022-08-31T21:02:34.833Z,63.17
2022-08-31T21:05:33.892Z,63.88
2022-08-31T21:07:52.341Z,63.69
2022-08-31T21:10:36.115Z,64.22
2022-08-31T21:13:09.158Z,64.13
2022-08-31T21:15:41.963Z,63.80
2022-08-31T21:18:10.273Z,63.73
2022-08-31T21:20:38.592Z,63.88
2022-08-31T21:23:12.821Z,63.75
2022-08-31T21:25:45.887Z,63.87
2022-08-31T21:28:17.435Z,64.08
2022-08-31T21:30:49.196Z,63.94
2022-08-31T21:33:17.521Z,64.06
2022-08-31T21:35:45.578Z,63.89
2022-08-31T21:38:13.754Z,63.75
2022-08-31T21:40:49.923Z,63.51
2022-08-31T21:43:18.515Z,63.48
2022-08-31T21:45:46.610Z,63.61
2022-08-31T21:48:14.880Z,63.87
2022-08-31T21:50:43.881Z,63.68
2022-08-31T21:53:12.966Z,63.88
2022-08-31T21:55:40.927Z,64.12
2022-08-31T21:58:10.918Z,64.47
2022-08-31T22:00:42.116Z,64.44
2022-08-31T22:03:10.422Z,65.59
2022-08-31T22:05:41.739Z,65.82
2022-08-31T22:08:10.340Z,66.45
2022-08-31T22:10:41.005Z,66.57
2022-08-31T22:13:12.547Z,66.39
2022-08-31T22:15:42.664Z,67.03
2022-08-31T22:18:58.313Z,67.32
2022-08-31T22:20:59.814Z,68.82
2022-08-31T22:23:28.502Z,69.42
2022-08-31T22:25:57.128Z,69.99
2022-08-31T22:28:27.765Z,70.02
2022-08-31T22:30:56.244Z,70.57
2022-08-31T22:33:24.213Z,70.52
2022-08-31T22:35:52.284Z,71.05
2022-08-31T22:38:20.357Z,71.45
2022-08-31T22:40:50.077Z,71.54
2022-08-31T22:43:18.843Z,71.34
2022-08-31T22:45:49.102Z,71.28
2022-08-31T22:48:17.256Z,71.57
2022-08-31T22:50:45.619Z,71.77
2022-08-31T22:53:14.267Z,71.89
2022-08-31T22:55:43.212Z,72.27
2022-08-31T22:58:12.589Z,72.36
2022-08-31T23:00:41.130Z,72.11
2022-08-31T23:03:13.594Z,71.83
2022-08-31T23:05:43.622Z,71.67
2022-08-31T23:08:12.489Z,72.80
2022-08-31T23:10:41.102Z,72.55
2022-08-31T23:13:09.172Z,72.68
2022-08-31T23:15:38.397Z,72.88
2022-08-31T23:18:09.838Z,72.87
2022-08-31T23:20:41.942Z,73.37
2022-08-31T23:23:11.039Z,73.53
2022-08-31T23:25:40.460Z,73.53
2022-08-31T23:28:08.767Z,73.58
2022-08-31T23:30:40.331Z,73.89
2022-08-31T23:33:09.885Z,74.33
2022-08-31T23:35:40.985Z,74.39
2022-08-31T23:38:10.687Z,74.26
2022-08-31T23:40:38.862Z,74.36
2022-08-31T23:43:11.020Z,74.46
2022-08-31T23:45:41.112Z,74.66
2022-08-31T23:48:09.640Z,74.64
2022-08-31T23:50:38.889Z,74.62
2022-08-31T23:53:11.872Z,74.79
2022-08-31T23:55:43.718Z,74.93
2022-08-31T23:58:14.216Z,75.10
